createdAt,value
2018-11-11T00:00:03.914Z,83.00
2018-11-11T00:03:08.297Z,82.90
2018-11-11T00:06:12.578Z,82.90
2018-11-11T00:09:16.900Z,82.60
2018-11-11T00:12:21.477Z,82.80
2018-11-11T00:15:25.848Z,82.90
2018-11-11T00:18:30.275Z,82.70
2018-11-11T00:21:34.674Z,82.80
2018-11-11T00:24:38.623Z,82.70
2018-11-11T00:27:42.604Z,83.20
2018-11-11T00:30:46.609Z,83.30
2018-11-11T00:33:50.888Z,83.10
2018-11-11T00:36:54.849Z,83.40
2018-11-11T00:39:59.015Z,84.00
2018-11-11T00:43:02.957Z,83.80
2018-11-11T00:46:07.001Z,83.50
2018-11-11T00:49:11.020Z,83.40
2018-11-11T00:52:14.989Z,83.80
2018-11-11T00:55:19.309Z,83.60
2018-11-11T00:58:24.129Z,83.60
2018-11-11T01:01:28.303Z,83.20
2018-11-11T01:04:32.572Z,83.10
2018-11-11T01:07:37.153Z,83.20
2018-11-11T01:10:41.191Z,83.20
2018-11-11T01:13:45.495Z,83.40
2018-11-11T01:16:49.461Z,83.40
2018-11-11T01:19:53.386Z,83.30
2018-11-11T01:22:57.632Z,83.40
2018-11-11T01:26:02.216Z,83.60
2018-11-11T01:29:06.735Z,84.00
2018-11-11T01:32:10.826Z,83.80
2018-11-11T01:35:16.253Z,84.20
2018-11-11T01:38:20.458Z,83.90
2018-11-11T01:41:24.964Z,84.30
2018-11-11T01:44:28.913Z,84.00
2018-11-11T01:47:32.882Z,84.30
2018-11-11T01:50:36.883Z,84.10
2018-11-11T01:53:40.938Z,84.40
2018-11-11T01:56:45.393Z,84.50
2018-11-11T01:59:49.355Z,85.30
2018-11-11T02:02:53.784Z,84.40
2018-11-11T02:05:57.734Z,84.40
2018-11-11T02:09:02.253Z,84.40
2018-11-11T02:12:06.247Z,84.40
2018-11-11T02:15:17.445Z,84.30
2018-11-11T02:18:21.785Z,84.40
2018-11-11T02:21:26.116Z,84.00
2018-11-11T02:24:30.038Z,84.40
2018-11-11T02:27:33.947Z,84.50
2018-11-11T02:30:37.867Z,84.70
2018-11-11T02:33:41.805Z,84.30
2018-11-11T02:36:46.131Z,84.40
2018-11-11T02:39:51.191Z,84.70
2018-11-11T02:42:55.751Z,85.20
2018-11-11T02:46:00.211Z,85.30
2018-11-11T02:49:04.572Z,84.90
2018-11-11T02:52:08.854Z,84.70
2018-11-11T02:55:13.610Z,84.20
2018-11-11T02:58:17.766Z,84.20
2018-11-11T03:01:22.248Z,84.20
2018-11-11T03:04:26.497Z,85.10
2018-11-11T03:07:30.754Z,84.90
2018-11-11T03:10:35.035Z,84.90
2018-11-11T03:13:39.446Z,85.30
2018-11-11T03:16:43.737Z,85.80
2018-11-11T03:19:48.079Z,85.80
2018-11-11T03:22:52.528Z,85.50
2018-11-11T03:25:56.892Z,85.50
2018-11-11T03:29:01.157Z,85.90
2018-11-11T03:32:05.582Z,85.90
2018-11-11T03:35:11.781Z,86.20
2018-11-11T03:38:16.003Z,86.00
2018-11-11T03:41:20.452Z,86.10
2018-11-11T03:44:24.577Z,86.20
2018-11-11T03:47:28.856Z,85.40
2018-11-11T03:50:33.058Z,85.20
2018-11-11T03:53:37.447Z,85.20
2018-11-11T03:56:41.873Z,85.10
2018-11-11T03:59:46.242Z,85.30
2018-11-11T04:02:50.643Z,85.20
2018-11-11T04:05:55.000Z,85.20
2018-11-11T04:08:59.370Z,85.30
2018-11-11T04:12:03.744Z,85.80
2018-11-11T04:15:09.519Z,86.20
2018-11-11T04:18:13.854Z,85.80
2018-11-11T04:21:18.171Z,85.40
2018-11-11T04:24:22.514Z,85.10
2018-11-11T04:27:26.709Z,85.20
2018-11-11T04:30:30.982Z,85.70
2018-11-11T04:33:35.480Z,85.90
2018-11-11T04:36:39.983Z,85.70
2018-11-11T04:39:44.276Z,85.80
2018-11-11T04:42:48.874Z,85.80
2018-11-11T04:45:53.103Z,85.80
2018-11-11T04:48:57.448Z,86.30
2018-11-11T04:52:01.966Z,86.40
2018-11-11T04:55:06.641Z,86.50
2018-11-11T04:58:10.983Z,86.30
2018-11-11T05:01:15.346Z,86.10
2018-11-11T05:04:19.698Z,86.10
2018-11-11T05:07:24.474Z,86.20
2018-11-11T05:10:28.749Z,86.50
2018-11-11T05:13:33.092Z,87.50
2018-11-11T05:16:37.406Z,87.10
2018-11-11T05:19:42.525Z,87.10
2018-11-11T05:22:46.952Z,87.10
2018-11-11T05:25:51.263Z,87.10
2018-11-11T05:28:55.628Z,87.30
2018-11-11T05:32:00.006Z,87.40
2018-11-11T05:35:04.707Z,87.20
2018-11-11T05:38:08.970Z,86.90
2018-11-11T05:41:13.372Z,86.10
2018-11-11T05:44:17.901Z,85.70
2018-11-11T05:47:22.306Z,85.50
2018-11-11T05:50:26.470Z,85.60
2018-11-11T05:53:30.828Z,85.60
2018-11-11T05:56:35.178Z,85.90
2018-11-11T05:59:39.511Z,85.80
2018-11-11T06:02:44.133Z,85.70
2018-11-11T06:05:48.572Z,86.00
2018-11-11T06:08:52.981Z,86.40
2018-11-11T06:11:57.295Z,86.90
2018-11-11T06:15:01.718Z,86.90
2018-11-11T06:18:06.058Z,87.30
2018-11-11T06:21:10.351Z,87.40
2018-11-11T06:24:14.537Z,87.50
2018-11-11T06:27:18.883Z,87.30
2018-11-11T06:30:23.253Z,87.00
2018-11-11T06:33:27.455Z,86.50
2018-11-11T06:36:32.012Z,86.10
2018-11-11T06:39:42.737Z,85.80
2018-11-11T06:42:47.051Z,85.90
2018-11-11T06:45:51.459Z,85.60
2018-11-11T06:48:55.802Z,85.40
2018-11-11T06:52:00.028Z,85.10
2018-11-11T06:55:04.387Z,84.40
2018-11-11T06:58:08.852Z,84.20
2018-11-11T07:01:13.316Z,84.10
2018-11-11T07:04:17.702Z,83.80
2018-11-11T07:07:22.168Z,84.40
2018-11-11T07:10:26.711Z,85.20
2018-11-11T07:13:31.215Z,86.20
2018-11-11T07:16:35.406Z,87.00
2018-11-11T07:19:39.936Z,86.60
2018-11-11T07:22:44.588Z,86.70
2018-11-11T07:25:48.747Z,86.60
2018-11-11T07:28:53.092Z,86.40
2018-11-11T07:31:57.428Z,86.50
2018-11-11T07:35:02.293Z,86.20
2018-11-11T07:38:06.675Z,85.90
2018-11-11T07:41:11.122Z,85.60
2018-11-11T07:44:15.476Z,85.90
2018-11-11T07:47:19.776Z,86.40
2018-11-11T07:50:24.174Z,87.00
2018-11-11T07:53:28.631Z,87.10
2018-11-11T07:56:33.037Z,87.40
2018-11-11T07:59:37.931Z,87.50
2018-11-11T08:02:42.341Z,87.30
2018-11-11T08:05:46.783Z,87.20
2018-11-11T08:08:51.030Z,85.80
2018-11-11T08:12:00.104Z,85.90
2018-11-11T08:15:04.571Z,85.80
2018-11-11T08:18:09.056Z,85.20
2018-11-11T08:21:13.474Z,85.20
2018-11-11T08:24:18.176Z,85.00
2018-11-11T08:27:22.452Z,84.70
2018-11-11T08:30:26.829Z,84.10
2018-11-11T08:33:31.299Z,83.60
2018-11-11T08:36:35.530Z,82.80
2018-11-11T08:39:39.914Z,82.00
2018-11-11T08:42:44.510Z,81.30
2018-11-11T08:45:48.898Z,80.60
2018-11-11T08:48:53.397Z,79.90
2018-11-11T08:51:57.616Z,79.40
2018-11-11T08:55:01.943Z,78.80
2018-11-11T08:58:06.284Z,78.30
2018-11-11T09:01:10.710Z,77.30
2018-11-11T09:04:15.322Z,76.70
2018-11-11T09:07:19.603Z,76.00
2018-11-11T09:10:23.983Z,76.70
2018-11-11T09:13:28.356Z,76.00
2018-11-11T09:16:32.718Z,75.90
2018-11-11T09:19:37.501Z,75.30
2018-11-11T09:22:42.965Z,74.80
2018-11-11T09:25:47.145Z,74.00
2018-11-11T09:28:51.759Z,74.00
2018-11-11T09:31:55.955Z,72.90
2018-11-11T09:35:00.336Z,71.00
2018-11-11T09:38:04.675Z,68.80
2018-11-11T09:41:09.600Z,62.00
2018-11-11T09:44:13.960Z,50.30
2018-11-11T09:47:18.229Z,39.50
2018-11-11T09:50:22.866Z,32.90
2018-11-11T09:53:27.010Z,29.70
2018-11-11T09:56:31.468Z,26.30
2018-11-11T09:59:35.846Z,24.30
2018-11-11T10:02:40.180Z,22.20
2018-11-11T10:05:50.751Z,20.10
2018-11-11T10:09:31.338Z,18.80
2018-11-11T10:12:39.635Z,17.80
2018-11-11T10:15:49.335Z,16.90
2018-11-11T10:19:05.737Z,15.80
2018-11-11T10:22:13.096Z,15.50
2018-11-11T10:25:22.779Z,15.90
2018-11-11T10:29:35.655Z,17.60
2018-11-11T10:32:57.956Z,19.60
2018-11-11T10:36:08.670Z,20.30
2018-11-11T10:41:25.267Z,19.40
2018-11-11T10:44:34.547Z,17.90
2018-11-11T10:47:45.034Z,16.30
2018-11-11T10:51:04.403Z,15.60
2018-11-11T10:54:08.807Z,14.70
2018-11-11T10:57:12.860Z,14.20
2018-11-11T11:00:22.001Z,13.60
2018-11-11T11:03:34.821Z,13.20
2018-11-11T11:06:44.256Z,12.90
2018-11-11T11:09:49.216Z,12.70
2018-11-11T11:12:53.133Z,12.40
2018-11-11T11:15:57.589Z,12.20
2018-11-11T11:19:01.608Z,12.20
2018-11-11T11:22:06.270Z,11.80
2018-11-11T11:25:11.200Z,11.80
2018-11-11T11:28:15.632Z,11.70
2018-11-11T11:31:19.605Z,11.80
2018-11-11T11:34:23.803Z,12.00
2018-11-11T11:37:28.213Z,12.00
2018-11-11T11:40:32.498Z,12.10
2018-11-11T11:43:36.483Z,12.20
2018-11-11T11:46:40.480Z,12.00
2018-11-11T11:49:44.538Z,12.00
2018-11-11T11:52:48.758Z,12.00
2018-11-11T11:55:53.054Z,12.80
2018-11-11T11:58:57.294Z,12.90
2018-11-11T12:02:01.775Z,13.30
2018-11-11T12:05:06.902Z,12.60
2018-11-11T12:08:10.855Z,12.60
2018-11-11T12:11:15.144Z,12.20
2018-11-11T12:14:19.499Z,12.10
2018-11-11T12:17:23.763Z,12.90
2018-11-11T12:20:28.168Z,13.30
2018-11-11T12:23:32.412Z,13.60
2018-11-11T12:26:36.762Z,13.80
2018-11-11T12:29:40.790Z,13.90
2018-11-11T12:32:44.870Z,13.70
2018-11-11T12:35:49.878Z,14.40
2018-11-11T12:38:54.463Z,14.70
2018-11-11T12:41:59.931Z,14.80
2018-11-11T12:45:04.387Z,14.50
2018-11-11T12:48:08.428Z,14.50
2018-11-11T12:51:12.769Z,14.60
2018-11-11T12:54:17.434Z,15.00
2018-11-11T12:57:22.190Z,14.40
2018-11-11T13:00:26.271Z,14.30
2018-11-11T13:03:30.837Z,14.60
2018-11-11T13:06:35.176Z,14.30
2018-11-11T13:09:39.643Z,14.70
2018-11-11T13:12:44.028Z,16.10
2018-11-11T13:15:48.324Z,16.80
2018-11-11T13:18:52.649Z,17.50
2018-11-11T13:21:57.069Z,17.10
2018-11-11T13:25:01.338Z,16.80
2018-11-11T13:28:05.919Z,16.60
2018-11-11T13:31:10.262Z,16.50
2018-11-11T13:34:14.259Z,16.60
2018-11-11T13:37:18.535Z,16.90
2018-11-11T13:40:22.722Z,16.70
2018-11-11T13:43:27.091Z,17.20
2018-11-11T13:46:31.388Z,17.40
2018-11-11T13:49:35.678Z,17.60
2018-11-11T13:52:39.621Z,18.50
2018-11-11T13:55:43.636Z,19.50
2018-11-11T13:58:47.638Z,20.90
2018-11-11T14:01:51.802Z,22.40
2018-11-11T14:04:56.198Z,24.00
2018-11-11T14:08:00.507Z,25.70
2018-11-11T14:11:04.749Z,27.10
2018-11-11T14:14:09.639Z,28.40
2018-11-11T14:17:13.592Z,29.70
2018-11-11T14:20:19.026Z,31.30
2018-11-11T14:23:22.993Z,33.10
2018-11-11T14:26:27.123Z,35.00
2018-11-11T14:29:31.052Z,36.40
2018-11-11T14:32:35.077Z,37.40
2018-11-11T14:35:39.491Z,38.30
2018-11-11T14:38:44.193Z,39.10
2018-11-11T14:41:48.644Z,39.80
2018-11-11T14:44:52.947Z,40.60
2018-11-11T14:47:57.777Z,41.20
2018-11-11T14:51:02.385Z,42.10
2018-11-11T14:54:06.501Z,42.60
2018-11-11T14:57:11.016Z,43.00
2018-11-11T15:00:17.609Z,43.40
2018-11-11T15:03:22.061Z,44.00
2018-11-11T15:06:26.003Z,44.50
2018-11-11T15:09:30.346Z,44.90
2018-11-11T15:12:34.408Z,45.50
2018-11-11T15:15:38.570Z,45.60
2018-11-11T15:18:43.011Z,46.30
2018-11-11T15:21:47.388Z,47.10
2018-11-11T15:24:51.628Z,47.40
2018-11-11T15:27:55.836Z,47.60
2018-11-11T15:31:00.440Z,48.10
2018-11-11T15:34:04.375Z,49.00
2018-11-11T15:37:08.896Z,49.70
2018-11-11T15:40:15.004Z,50.50
2018-11-11T15:43:19.078Z,51.10
2018-11-11T15:46:23.359Z,51.90
2018-11-11T15:49:27.246Z,52.50
2018-11-11T15:52:31.995Z,53.40
2018-11-11T15:55:37.958Z,54.10
2018-11-11T15:58:42.504Z,54.90
2018-11-11T16:01:46.551Z,55.90
2018-11-11T16:04:51.315Z,56.80
2018-11-11T16:07:56.155Z,57.90
2018-11-11T16:11:00.427Z,58.60
2018-11-11T16:14:04.539Z,58.90
2018-11-11T16:17:08.819Z,59.50
2018-11-11T16:20:14.478Z,59.80
2018-11-11T16:23:19.016Z,60.40
2018-11-11T16:26:23.296Z,60.30
2018-11-11T16:29:27.450Z,61.40
2018-11-11T16:32:31.736Z,62.60
2018-11-11T16:35:35.749Z,62.40
2018-11-11T16:38:39.816Z,62.80
2018-11-11T16:41:43.862Z,63.30
2018-11-11T16:44:47.767Z,63.90
2018-11-11T16:47:51.779Z,64.40
2018-11-11T16:50:56.048Z,64.50
2018-11-11T16:54:00.554Z,64.90
2018-11-11T16:57:04.778Z,65.20
2018-11-11T17:00:11.465Z,65.40
2018-11-11T17:03:15.811Z,65.70
2018-11-11T17:06:19.795Z,66.80
2018-11-11T17:09:24.149Z,66.90
2018-11-11T17:12:28.213Z,67.60
2018-11-11T17:15:33.213Z,67.70
2018-11-11T17:18:37.717Z,68.00
2018-11-11T17:21:42.645Z,68.40
2018-11-11T17:24:46.628Z,68.60
2018-11-11T17:27:51.097Z,68.80
2018-11-11T17:30:55.495Z,68.90
2018-11-11T17:34:00.597Z,69.20
2018-11-11T17:37:05.168Z,70.00
2018-11-11T17:40:14.397Z,70.10
2018-11-11T17:43:18.467Z,70.60
2018-11-11T17:46:22.586Z,71.10
2018-11-11T17:49:27.084Z,71.40
2018-11-11T17:52:31.449Z,71.60
2018-11-11T17:55:35.838Z,71.90
2018-11-11T17:58:40.163Z,72.30
2018-11-11T18:01:44.570Z,72.50
2018-11-11T18:04:48.925Z,72.80
2018-11-11T18:07:55.965Z,73.00
2018-11-11T18:11:00.992Z,73.20
2018-11-11T18:14:15.494Z,73.50
2018-11-11T18:17:20.848Z,73.70
2018-11-11T18:20:26.714Z,74.00
2018-11-11T18:23:31.022Z,74.70
2018-11-11T18:26:35.228Z,75.00
2018-11-11T18:29:45.972Z,75.20
2018-11-11T18:32:50.295Z,75.20
2018-11-11T18:35:54.792Z,75.70
2018-11-11T18:38:59.279Z,76.00
2018-11-11T18:42:03.674Z,75.60
2018-11-11T18:45:11.380Z,76.10
2018-11-11T18:48:15.883Z,76.20
2018-11-11T18:51:21.141Z,76.20
2018-11-11T18:54:26.352Z,76.20
2018-11-11T18:57:30.810Z,76.50
2018-11-11T19:00:35.589Z,76.70
2018-11-11T19:03:40.078Z,76.40
2018-11-11T19:06:44.050Z,76.40
2018-11-11T19:09:48.198Z,76.20
2018-11-11T19:12:53.985Z,76.20
2018-11-11T19:15:58.105Z,76.00
2018-11-11T19:19:02.631Z,76.00
2018-11-11T19:22:06.993Z,75.60
2018-11-11T19:25:13.347Z,75.80
2018-11-11T19:28:19.046Z,75.80
2018-11-11T19:31:23.471Z,75.90
2018-11-11T19:34:28.500Z,76.00
2018-11-11T19:37:33.565Z,76.10
2018-11-11T19:40:38.033Z,76.70
2018-11-11T19:43:43.343Z,77.10
2018-11-11T19:46:48.139Z,77.10
2018-11-11T19:49:53.429Z,77.20
2018-11-11T19:52:58.169Z,77.50
2018-11-11T19:56:02.549Z,77.30
2018-11-11T19:59:07.135Z,76.90
2018-11-11T20:02:11.549Z,76.70
2018-11-11T20:05:16.875Z,76.70
2018-11-11T20:08:21.334Z,77.40
2018-11-11T20:11:25.577Z,76.80
2018-11-11T20:14:30.237Z,76.90
2018-11-11T20:17:34.602Z,77.30
2018-11-11T20:20:40.263Z,77.70
2018-11-11T20:23:44.355Z,77.60
2018-11-11T20:26:48.735Z,77.40
2018-11-11T20:29:52.769Z,77.30
2018-11-11T20:33:03.200Z,78.00
2018-11-11T20:36:07.812Z,78.20
2018-11-11T20:39:12.946Z,78.20
2018-11-11T20:42:18.836Z,78.40
2018-11-11T20:45:25.313Z,78.50
2018-11-11T20:48:30.585Z,78.60
2018-11-11T20:51:34.883Z,78.70
2018-11-11T20:54:39.201Z,78.90
2018-11-11T20:57:43.266Z,78.80
2018-11-11T21:00:47.298Z,79.10
2018-11-11T21:03:51.414Z,79.30
2018-11-11T21:06:55.844Z,79.80
2018-11-11T21:10:00.046Z,80.00
2018-11-11T21:13:04.673Z,80.30
2018-11-11T21:16:09.185Z,79.90
2018-11-11T21:19:13.787Z,80.30
2018-11-11T21:22:17.767Z,80.60
2018-11-11T21:25:22.735Z,80.80
2018-11-11T21:28:27.199Z,80.80
2018-11-11T21:31:31.253Z,81.10
2018-11-11T21:34:35.471Z,81.40
2018-11-11T21:37:39.994Z,81.40
2018-11-11T21:40:44.349Z,81.30
2018-11-11T21:43:48.452Z,81.20
2018-11-11T21:46:52.990Z,81.30
2018-11-11T21:49:57.093Z,81.10
2018-11-11T21:53:05.779Z,81.00
2018-11-11T21:56:10.255Z,80.90
2018-11-11T21:59:14.301Z,81.70
2018-11-11T22:02:18.282Z,80.80
2018-11-11T22:05:22.724Z,80.50
2018-11-11T22:08:26.964Z,80.60
2018-11-11T22:11:31.064Z,80.80
2018-11-11T22:14:35.159Z,80.60
2018-11-11T22:17:39.119Z,80.80
2018-11-11T22:20:43.078Z,80.60
2018-11-11T22:23:47.502Z,80.40
2018-11-11T22:26:51.482Z,80.50
2018-11-11T22:29:56.183Z,80.40
2018-11-11T22:33:00.678Z,80.70
2018-11-11T22:36:05.273Z,80.70
2018-11-11T22:39:10.911Z,80.80
2018-11-11T22:42:15.311Z,80.60
2018-11-11T22:45:20.111Z,81.00
2018-11-11T22:48:24.440Z,80.90
2018-11-11T22:51:28.817Z,80.80
2018-11-11T22:54:33.118Z,80.70
2018-11-11T22:57:37.931Z,80.70
2018-11-11T23:00:47.434Z,80.70
2018-11-11T23:03:51.566Z,80.60
2018-11-11T23:06:55.955Z,80.60
2018-11-11T23:09:59.865Z,81.20
2018-11-11T23:13:04.058Z,81.20
2018-11-11T23:16:08.103Z,81.10
2018-11-11T23:19:12.411Z,81.10
2018-11-11T23:22:16.678Z,81.10
2018-11-11T23:25:20.937Z,81.10
2018-11-11T23:28:25.330Z,81.00
2018-11-11T23:31:29.670Z,81.10
2018-11-11T23:34:33.919Z,81.70
2018-11-11T23:37:38.302Z,82.20
2018-11-11T23:40:42.763Z,82.70
2018-11-11T23:43:47.479Z,82.90
2018-11-11T23:46:51.950Z,82.90
2018-11-11T23:49:56.145Z,82.60
2018-11-11T23:53:00.416Z,82.90
2018-11-11T23:56:04.777Z,82.60
2018-11-11T23:59:08.937Z,82.70
